Time;durP1;ratioP1;P1;durP2;ratioP2;P2;SDS_P1;SDS_P2;PMS_P1;PMS_P2;Temp;Humidity;BMP_temperature;BMP_pressure;BME280_temperature;BME280_humidity;BME280_pressure;Samples;Min_cycle;Max_cycle;Signal;HPM_P1;HPM_P2
2021/07/01 00:01:14;;;;;;;0.43;0.40;;;17.10;1.00;;;;;;5075472;28;20473;-77
2021/07/01 00:03:42;;;;;;;0.50;0.40;;;17.10;99.90;;;;;;5076905;28;20455;-78
2021/07/01 00:06:11;;;;;;;0.80;0.53;;;17.00;1.00;;;;;;5055088;28;20480;-76
2021/07/01 00:08:42;;;;;;;0.50;0.50;;;17.10;1.00;;;;;;5091729;28;20449;-77
2021/07/01 00:11:11;;;;;;;0.50;0.50;;;17.10;99.90;;;;;;5066306;28;20518;-77
2021/07/01 00:13:39;;;;;;;3.03;0.60;;;17.00;1.00;;;;;;5060027;28;20459;-77
2021/07/01 00:16:07;;;;;;;0.50;0.50;;;16.80;1.00;;;;;;5069787;28;20532;-79
2021/07/01 00:18:35;;;;;;;0.33;0.33;;;16.90;1.00;;;;;;5068202;28;20458;-79
2021/07/01 00:21:03;;;;;;;0.50;0.50;;;17.00;99.90;;;;;;5067293;28;20514;-79
2021/07/01 00:23:31;;;;;;;0.40;0.40;;;17.00;1.00;;;;;;5081335;28;20859;-78
2021/07/01 00:26:00;;;;;;;0.50;0.50;;;17.10;1.00;;;;;;5061729;28;20593;-77
2021/07/01 00:28:46;;;;;;;0.50;0.40;;;17.10;1.00;;;;;;5094982;28;20634;-77
2021/07/01 00:31:14;;;;;;;0.43;0.43;;;17.20;99.90;;;;;;5075227;28;20524;-78
2021/07/01 00:33:42;;;;;;;0.43;0.43;;;17.10;99.90;;;;;;5067890;28;20505;-78
2021/07/01 00:36:11;;;;;;;0.40;0.40;;;17.20;99.90;;;;;;5063280;28;20476;-78
2021/07/01 00:38:39;;;;;;;0.40;0.40;;;17.10;99.90;;;;;;5068087;28;20465;-78
2021/07/01 00:41:08;;;;;;;0.40;0.40;;;17.10;99.90;;;;;;5062127;28;20512;-78
2021/07/01 00:43:36;;;;;;;1.00;0.50;;;17.00;99.90;;;;;;5072254;28;20892;-78
2021/07/01 00:46:05;;;;;;;0.40;0.40;;;17.00;99.90;;;;;;5067782;28;21087;-79
2021/07/01 00:48:33;;;;;;;1.23;0.40;;;17.00;99.90;;;;;;5066376;28;20509;-79
2021/07/01 00:51:02;;;;;;;0.40;0.40;;;16.90;99.90;;;;;;5063473;28;20487;-78
2021/07/01 00:53:30;;;;;;;0.70;0.50;;;16.90;1.00;;;;;;5068384;28;20488;-78
2021/07/01 00:55:59;;;;;;;0.47;0.43;;;17.00;99.90;;;;;;5057744;28;20695;-78
2021/07/01 00:58:29;;;;;;;0.60;0.50;;;17.00;1.00;;;;;;5068654;28;20512;-78
2021/07/01 01:01:02;;;;;;;1.60;0.40;;;17.00;99.90;;;;;;5066841;28;20508;-77
2021/07/01 01:03:30;;;;;;;0.40;0.40;;;17.00;99.90;;;;;;5049919;28;20459;-77
2021/07/01 01:05:59;;;;;;;0.50;0.50;;;17.00;99.90;;;;;;5063445;28;20498;-77
2021/07/01 01:08:27;;;;;;;0.40;0.40;;;16.90;99.90;;;;;;5083021;28;20455;-80
2021/07/01 01:10:56;;;;;;;1.80;0.50;;;17.00;1.00;;;;;;5081513;28;20443;-78
2021/07/01 01:13:25;;;;;;;0.50;0.50;;;16.90;99.90;;;;;;5071786;28;20487;-78
2021/07/01 01:15:58;;;;;;;0.40;0.40;;;16.90;99.90;;;;;;5069752;28;20559;-78
2021/07/01 01:18:26;;;;;;;0.50;0.50;;;16.90;1.00;;;;;;5068147;28;20451;-77
2021/07/01 01:20:56;;;;;;;0.60;0.60;;;16.80;99.90;;;;;;5070234;28;20600;-78
2021/07/01 01:23:26;;;;;;;0.40;0.40;;;16.70;99.90;;;;;;5066977;28;20438;-77
2021/07/01 01:25:57;;;;;;;0.50;0.50;;;16.80;99.90;;;;;;5070210;28;20479;-78
2021/07/01 01:28:25;;;;;;;0.50;0.50;;;16.70;1.00;;;;;;5061734;28;20455;-76
2021/07/01 01:30:54;;;;;;;0.43;0.43;;;16.80;1.00;;;;;;5067649;28;21011;-76
2021/07/01 01:33:23;;;;;;;0.50;0.50;;;16.80;1.00;;;;;;5078588;28;20470;-77
2021/07/01 01:35:52;;;;;;;0.50;0.50;;;16.90;99.90;;;;;;5068974;28;20522;-77
2021/07/01 01:38:21;;;;;;;0.53;0.40;;;16.90;99.90;;;;;;5077169;28;20439;-77
2021/07/01 01:40:51;;;;;;;0.40;0.40;;;16.90;99.90;;;;;;5069481;28;20857;-78
2021/07/01 01:43:21;;;;;;;0.40;0.40;;;16.90;99.90;;;;;;5063177;28;20447;-76
2021/07/01 01:45:51;;;;;;;0.50;0.50;;;17.00;99.90;;;;;;5067554;28;20474;-77
2021/07/01 01:48:20;;;;;;;0.40;0.40;;;17.00;99.90;;;;;;5076858;28;20457;-76
2021/07/01 01:50:49;;;;;;;0.40;0.40;;;17.10;99.90;;;;;;5086643;28;20487;-77
2021/07/01 01:53:17;;;;;;;1.07;0.60;;;17.10;99.90;;;;;;5068179;28;20544;-78
2021/07/01 01:55:45;;;;;;;0.50;0.50;;;17.20;99.90;;;;;;5067556;28;20509;-76
2021/07/01 01:58:15;;;;;;;0.50;0.50;;;17.20;99.90;;;;;;5072678;28;20462;-76
2021/07/01 02:00:43;;;;;;;0.40;0.40;;;17.20;99.90;;;;;;5065363;28;20460;-77
2021/07/01 02:03:11;;;;;;;0.40;0.40;;;17.10;99.90;;;;;;5070170;28;20453;-77
2021/07/01 02:05:39;;;;;;;0.47;0.47;;;17.10;99.90;;;;;;5063423;28;21124;-76
2021/07/01 02:08:09;;;;;;;0.40;0.40;;;17.00;99.90;;;;;;5066124;28;20451;-77
2021/07/01 02:10:37;;;;;;;0.40;0.40;;;17.10;99.90;;;;;;5082253;28;20564;-75
2021/07/01 02:13:10;;;;;;;1.03;0.43;;;17.20;99.90;;;;;;5070190;28;20818;-77
2021/07/01 02:15:40;;;;;;;0.40;0.40;;;17.10;99.90;;;;;;5071515;28;20497;-77
2021/07/01 02:18:08;;;;;;;0.40;0.40;;;17.10;99.90;;;;;;5085784;28;20553;-77
2021/07/01 02:20:36;;;;;;;0.40;0.40;;;17.10;99.90;;;;;;5078148;28;20495;-76
2021/07/01 02:23:05;;;;;;;0.40;0.40;;;17.00;99.90;;;;;;5074269;28;20459;-77
2021/07/01 02:25:33;;;;;;;0.40;0.40;;;16.90;99.90;;;;;;5084905;28;20442;-78
2021/07/01 02:28:01;;;;;;;0.60;0.60;;;16.90;1.00;;;;;;5073739;28;20438;-77
2021/07/01 02:30:29;;;;;;;0.40;0.40;;;16.90;99.90;;;;;;5083002;28;20475;-77
2021/07/01 02:32:59;;;;;;;0.50;0.50;;;16.90;99.90;;;;;;5073236;28;20476;-77
2021/07/01 02:35:32;;;;;;;0.40;0.40;;;16.80;1.00;;;;;;5071308;28;20911;-76
2021/07/01 02:38:01;;;;;;;0.50;0.50;;;16.90;1.00;;;;;;5083249;28;20457;-77
2021/07/01 02:40:29;;;;;;;0.50;0.50;;;16.90;1.00;;;;;;5104997;28;20958;-77
2021/07/01 02:42:58;;;;;;;0.60;0.60;;;17.00;99.90;;;;;;5070497;28;20450;-77
2021/07/01 02:45:26;;;;;;;0.40;0.40;;;16.90;1.00;;;;;;5076574;28;20451;-79
2021/07/01 02:47:54;;;;;;;0.60;0.50;;;17.00;99.90;;;;;;5076731;28;20509;-79
2021/07/01 02:50:24;;;;;;;0.50;0.50;;;16.90;99.90;;;;;;5074413;28;20976;-77
2021/07/01 02:52:52;;;;;;;1.10;0.50;;;16.90;1.00;;;;;;5069853;28;20471;-78
2021/07/01 02:55:37;;;;;;;0.97;0.40;;;16.90;1.00;;;;;;5080805;28;20466;-78
2021/07/01 02:58:05;;;;;;;0.50;0.40;;;16.80;1.00;;;;;;5068586;28;20494;-78
2021/07/01 03:00:33;;;;;;;0.47;0.47;;;16.70;1.00;;;;;;5069755;28;20457;-77
2021/07/01 03:03:01;;;;;;;1.37;0.50;;;16.80;20.70;;;;;;5077192;28;20866;-78
2021/07/01 03:05:31;;;;;;;0.40;0.40;;;16.80;1.00;;;;;;5060860;28;21244;-77
2021/07/01 03:07:59;;;;;;;0.50;0.50;;;16.80;1.00;;;;;;5078514;28;20461;-78
2021/07/01 03:10:27;;;;;;;0.50;0.50;;;16.80;1.00;;;;;;5071238;28;20463;-77
2021/07/01 03:12:55;;;;;;;0.60;0.50;;;16.80;1.00;;;;;;5076462;28;21192;-79
2021/07/01 03:15:23;;;;;;;0.43;0.43;;;16.90;1.00;;;;;;5081120;28;20445;-77
2021/07/01 03:17:52;;;;;;;1.77;0.60;;;17.00;1.00;;;;;;5076349;28;20483;-78
2021/07/01 03:20:20;;;;;;;0.63;0.63;;;16.90;1.00;;;;;;5071067;28;20504;-78
2021/07/01 03:22:49;;;;;;;1.70;0.50;;;17.00;1.00;;;;;;5069614;28;20455;-78
2021/07/01 03:25:17;;;;;;;0.60;0.60;;;17.00;1.00;;;;;;5068848;28;20447;-79
2021/07/01 03:27:45;;;;;;;1.20;0.60;;;17.00;1.00;;;;;;5059301;28;20492;-78
2021/07/01 03:30:14;;;;;;;0.50;0.50;;;17.00;1.00;;;;;;5060759;28;20483;-79
2021/07/01 03:32:44;;;;;;;0.50;0.40;;;17.00;1.00;;;;;;5085617;28;20528;-79
2021/07/01 03:35:12;;;;;;;0.50;0.50;;;17.00;1.00;;;;;;5068917;28;20457;-79
2021/07/01 03:37:40;;;;;;;0.53;0.53;;;17.00;1.00;;;;;;5058625;28;20486;-78
2021/07/01 03:40:11;;;;;;;0.67;0.60;;;17.00;1.00;;;;;;5070284;28;20431;-77
2021/07/01 03:42:39;;;;;;;0.50;0.50;;;16.90;1.00;;;;;;5071668;28;20450;-78
2021/07/01 03:45:08;;;;;;;1.23;0.67;;;16.80;1.00;;;;;;5074843;28;20948;-76
2021/07/01 03:47:36;;;;;;;1.70;0.60;;;16.70;1.00;;;;;;5076462;28;20466;-77
2021/07/01 03:50:07;;;;;;;0.50;0.50;;;16.80;99.90;;;;;;5076431;28;20966;-78
2021/07/01 03:52:35;;;;;;;0.60;0.60;;;16.70;99.90;;;;;;5067497;28;20451;-78
2021/07/01 03:55:03;;;;;;;0.60;0.60;;;16.90;42.20;;;;;;5092064;28;20468;-78
2021/07/01 03:57:33;;;;;;;0.67;0.67;;;17.00;1.00;;;;;;5069672;28;21040;-77
2021/07/01 04:00:03;;;;;;;0.93;0.70;;;16.80;1.00;;;;;;5064701;28;20453;-78
2021/07/01 04:02:31;;;;;;;0.60;0.60;;;16.80;99.90;;;;;;5073880;28;20885;-78
2021/07/01 04:04:59;;;;;;;1.90;0.60;;;16.60;99.90;;;;;;5067026;28;20866;-78
2021/07/01 04:07:27;;;;;;;2.93;0.60;;;16.60;1.00;;;;;;5083406;28;20887;-78
2021/07/01 04:09:55;;;;;;;0.73;0.63;;;16.60;99.90;;;;;;5069458;28;20443;-78
2021/07/01 04:12:23;;;;;;;0.70;0.70;;;16.60;99.90;;;;;;5068913;28;20459;-77
2021/07/01 04:14:53;;;;;;;0.50;0.50;;;16.50;1.00;;;;;;5073011;28;21721;-77
2021/07/01 04:17:21;;;;;;;0.60;0.60;;;16.50;1.00;;;;;;5069508;28;20486;-77
2021/07/01 04:19:49;;;;;;;0.70;0.70;;;16.70;1.00;;;;;;5073667;28;21053;-76
2021/07/01 04:22:17;;;;;;;0.60;0.60;;;16.60;1.00;;;;;;5089400;28;20451;-77
2021/07/01 04:24:45;;;;;;;0.83;0.60;;;16.60;1.00;;;;;;5076383;28;20466;-77
2021/07/01 04:27:13;;;;;;;0.93;0.70;;;16.60;1.00;;;;;;5087959;28;20470;-79
2021/07/01 04:29:42;;;;;;;2.60;0.80;;;16.40;1.00;;;;;;5069179;28;20444;-80
2021/07/01 04:32:12;;;;;;;0.90;0.80;;;16.50;99.90;;;;;;5078949;28;20451;-79
2021/07/01 04:34:40;;;;;;;0.80;0.80;;;16.60;43.40;;;;;;5084539;28;20479;-78
2021/07/01 04:37:08;;;;;;;0.60;0.60;;;16.50;1.00;;;;;;5069618;28;20483;-80
2021/07/01 04:39:36;;;;;;;0.70;0.60;;;16.50;1.00;;;;;;5062823;28;20446;-77
2021/07/01 04:42:05;;;;;;;1.53;0.60;;;16.40;99.90;;;;;;5068756;28;20460;-80
2021/07/01 04:44:33;;;;;;;0.80;0.80;;;16.30;99.90;;;;;;5076674;28;20443;-80
2021/07/01 04:47:01;;;;;;;0.60;0.60;;;16.10;99.90;;;;;;5069923;28;20533;-80
2021/07/01 04:49:31;;;;;;;0.80;0.77;;;16.20;99.90;;;;;;5078850;28;20476;-80
2021/07/01 04:51:59;;;;;;;0.60;0.60;;;16.20;1.00;;;;;;5064030;28;20463;-80
2021/07/01 04:54:31;;;;;;;0.90;0.90;;;16.20;1.00;;;;;;5079135;28;20470;-81
2021/07/01 04:56:59;;;;;;;1.10;1.00;;;16.10;1.00;;;;;;5064393;28;20478;-79
2021/07/01 04:59:27;;;;;;;0.80;0.70;;;16.10;1.00;;;;;;5063465;28;20459;-78
2021/07/01 05:01:56;;;;;;;0.70;0.70;;;16.20;99.90;;;;;;5060766;28;20454;-80
2021/07/01 05:04:24;;;;;;;0.73;0.73;;;16.30;85.80;;;;;;5066435;28;20447;-80
2021/07/01 05:06:53;;;;;;;0.77;0.77;;;16.30;1.00;;;;;;5057955;28;20480;-79
2021/07/01 05:09:21;;;;;;;1.67;0.80;;;16.30;1.00;;;;;;5062610;28;20443;-80
2021/07/01 05:11:50;;;;;;;0.90;0.80;;;16.30;1.00;;;;;;5054449;28;20455;-81
2021/07/01 05:14:18;;;;;;;0.67;0.67;;;16.30;1.00;;;;;;5061271;28;20513;-81
2021/07/01 05:16:47;;;;;;;1.87;0.67;;;16.30;1.00;;;;;;5065340;28;20469;-81
2021/07/01 05:19:17;;;;;;;0.70;0.70;;;16.40;99.90;;;;;;5056723;28;20494;-81
2021/07/01 05:21:45;;;;;;;0.80;0.77;;;16.40;1.00;;;;;;5060778;28;20515;-80
2021/07/01 05:24:14;;;;;;;0.97;0.70;;;16.40;1.00;;;;;;5062835;28;20898;-81
2021/07/01 05:26:43;;;;;;;2.43;0.70;;;16.50;1.00;;;;;;5073075;28;20490;-80
2021/07/01 05:29:11;;;;;;;0.70;0.70;;;16.50;99.90;;;;;;5063319;28;20586;-80
2021/07/01 05:31:59;;;;;;;1.17;0.90;;;16.50;99.90;;;;;;5074532;28;20480;-80
2021/07/01 05:34:27;;;;;;;2.53;0.90;;;16.60;99.90;;;;;;5061423;28;20476;-82
2021/07/01 05:36:55;;;;;;;1.00;0.60;;;16.60;1.00;;;;;;5054614;28;21022;-80
2021/07/01 05:39:25;;;;;;;1.53;0.80;;;16.60;1.00;;;;;;5088439;28;20518;-80
2021/07/01 05:41:53;;;;;;;1.27;0.70;;;16.60;99.90;;;;;;5064368;28;20530;-80
2021/07/01 05:44:21;;;;;;;0.80;0.60;;;16.60;99.90;;;;;;5058544;28;20448;-80
2021/07/01 05:46:49;;;;;;;1.30;0.80;;;16.50;1.00;;;;;;5060978;28;20488;-80
2021/07/01 05:49:17;;;;;;;0.53;0.53;;;16.40;95.60;;;;;;5072489;28;21117;-79
2021/07/01 05:51:47;;;;;;;0.80;0.67;;;16.50;57.10;;;;;;5059515;28;20535;-80
2021/07/01 05:54:20;;;;;;;1.50;0.67;;;16.60;9.50;;;;;;5066868;28;20462;-80
2021/07/01 05:56:49;;;;;;;0.80;0.80;;;16.30;1.00;;;;;;5079513;28;20506;-80
2021/07/01 05:59:18;;;;;;;0.60;0.60;;;16.70;1.00;;;;;;5062106;28;20455;-80
2021/07/01 06:01:46;;;;;;;1.67;0.70;;;16.70;99.90;;;;;;5061526;28;20686;-80
2021/07/01 06:04:17;;;;;;;1.70;0.80;;;16.80;99.90;;;;;;5062709;28;20515;-82
2021/07/01 06:06:49;;;;;;;1.50;1.00;;;16.80;99.90;;;;;;5060252;28;20473;-81
2021/07/01 06:09:22;;;;;;;0.70;0.70;;;16.90;1.00;;;;;;5066132;28;20468;-79
2021/07/01 06:11:59;;;;;;;1.00;0.67;;;17.00;1.00;;;;;;5084381;28;20459;-80
2021/07/01 06:14:29;;;;;;;1.47;0.80;;;16.90;99.90;;;;;;5075135;28;20467;-80
2021/07/01 06:16:59;;;;;;;1.43;0.87;;;16.90;99.90;;;;;;5084118;28;20474;-80
2021/07/01 06:19:27;;;;;;;1.00;0.80;;;16.90;99.90;;;;;;5069513;28;20451;-81
2021/07/01 06:21:55;;;;;;;0.60;0.60;;;16.80;1.00;;;;;;5068094;28;20458;-81
2021/07/01 06:24:24;;;;;;;1.93;0.80;;;16.90;99.90;;;;;;5064077;28;20459;-81
2021/07/01 06:26:52;;;;;;;1.00;0.70;;;17.00;1.00;;;;;;5066780;28;20480;-80
2021/07/01 06:29:26;;;;;;;0.90;0.80;;;17.00;99.90;;;;;;5063816;28;20982;-81
2021/07/01 06:31:54;;;;;;;2.40;0.87;;;16.90;99.90;;;;;;5061488;28;20466;-79
2021/07/01 06:34:22;;;;;;;0.70;0.70;;;16.90;99.90;;;;;;5053726;28;20478;-80
2021/07/01 06:36:56;;;;;;;1.63;1.00;;;17.00;99.90;;;;;;5076781;28;20509;-80
2021/07/01 06:39:28;;;;;;;2.37;1.00;;;17.00;99.90;;;;;;5065201;28;20444;-77
2021/07/01 06:42:03;;;;;;;0.90;0.90;;;17.10;1.00;;;;;;5069187;28;20482;-80
2021/07/01 06:44:33;;;;;;;2.53;0.90;;;17.10;99.90;;;;;;5077831;28;20439;-78
2021/07/01 06:47:01;;;;;;;0.90;0.90;;;17.00;99.90;;;;;;5062700;28;20470;-80
2021/07/01 06:49:32;;;;;;;1.10;1.00;;;17.00;1.00;;;;;;5060201;28;20905;-80
2021/07/01 06:52:02;;;;;;;1.07;0.97;;;17.00;54.00;;;;;;5064292;28;20486;-79
2021/07/01 06:54:31;;;;;;;1.57;0.90;;;17.00;25.10;;;;;;5084927;28;20458;-80
2021/07/01 06:57:00;;;;;;;0.80;0.80;;;17.00;1.00;;;;;;5063937;28;20473;-79
2021/07/01 06:59:28;;;;;;;0.97;0.90;;;17.00;1.00;;;;;;5088856;28;20788;-79
2021/07/01 07:01:59;;;;;;;1.30;1.00;;;17.00;1.00;;;;;;5088499;28;20474;-79
2021/07/01 07:04:28;;;;;;;1.23;1.13;;;16.90;1.00;;;;;;5069156;28;20491;-81
2021/07/01 07:06:56;;;;;;;1.47;1.00;;;17.00;99.90;;;;;;5059669;28;20471;-79
2021/07/01 07:09:25;;;;;;;1.43;1.00;;;17.00;1.00;;;;;;5061420;28;21317;-80
2021/07/01 07:11:53;;;;;;;1.77;1.00;;;17.10;99.90;;;;;;5061092;28;20452;-80
2021/07/01 07:14:21;;;;;;;0.90;0.80;;;17.10;1.00;;;;;;5057285;28;20514;-79
2021/07/01 07:16:52;;;;;;;1.13;1.03;;;17.10;1.00;;;;;;5063637;28;20495;-81
2021/07/01 07:19:23;;;;;;;1.10;1.00;;;17.20;1.00;;;;;;5061106;28;20449;-79
2021/07/01 07:21:52;;;;;;;1.10;1.00;;;17.30;99.90;;;;;;5072398;28;20457;-80
2021/07/01 07:24:21;;;;;;;1.90;1.23;;;17.30;99.90;;;;;;5065497;28;20455;-78
2021/07/01 07:26:52;;;;;;;1.20;1.10;;;17.30;1.00;;;;;;5063884;28;20507;-81
2021/07/01 07:29:31;;;;;;;2.40;1.20;;;17.50;59.80;;;;;;5067977;28;20538;-79
2021/07/01 07:32:03;;;;;;;1.50;1.20;;;17.60;1.00;;;;;;5076148;28;20470;-82
2021/07/01 07:34:34;;;;;;;1.57;1.47;;;17.60;1.00;;;;;;5052975;28;20453;-79
2021/07/01 07:37:03;;;;;;;3.17;1.27;;;17.70;40.60;;;;;;5077972;28;20493;-83
2021/07/01 07:39:32;;;;;;;1.47;0.90;;;17.70;1.00;;;;;;5084384;28;20461;-79
2021/07/01 07:42:01;;;;;;;1.20;1.10;;;17.60;1.00;;;;;;5060637;28;20559;-80
2021/07/01 07:44:30;;;;;;;1.10;0.93;;;17.70;1.00;;;;;;5070783;28;20458;-80
2021/07/01 07:46:59;;;;;;;1.83;1.20;;;17.70;99.90;;;;;;5064963;28;20469;-80
2021/07/01 07:49:28;;;;;;;1.30;1.20;;;17.70;99.90;;;;;;5065232;28;20496;-80
2021/07/01 07:52:02;;;;;;;2.93;1.27;;;17.60;99.90;;;;;;5075422;28;20519;-79
2021/07/01 07:54:37;;;;;;;2.20;1.07;;;17.70;99.90;;;;;;5063785;28;20516;-79
2021/07/01 07:57:07;;;;;;;1.10;1.00;;;17.70;99.90;;;;;;5061614;28;20495;-77
2021/07/01 07:59:38;;;;;;;1.53;1.43;;;17.70;99.90;;;;;;5065633;28;20537;-79
2021/07/01 08:02:14;;;;;;;1.20;1.10;;;17.60;99.90;;;;;;5062019;28;20465;-82
2021/07/01 08:04:42;;;;;;;1.30;1.20;;;17.60;99.90;;;;;;5068502;28;20461;-80
2021/07/01 08:07:12;;;;;;;1.70;1.60;;;17.70;99.90;;;;;;5065389;28;20480;-80
2021/07/01 08:09:40;;;;;;;1.27;1.10;;;17.80;99.90;;;;;;5063776;28;20854;-79
2021/07/01 08:12:09;;;;;;;1.33;1.20;;;17.80;99.90;;;;;;5077979;28;21187;-78
2021/07/01 08:14:42;;;;;;;1.63;1.40;;;17.80;99.90;;;;;;5063561;28;21046;-78
2021/07/01 08:17:10;;;;;;;1.90;1.50;;;17.90;99.90;;;;;;5060360;28;20854;-79
2021/07/01 08:19:40;;;;;;;1.60;1.40;;;17.90;99.90;;;;;;5061215;28;21006;-80
2021/07/01 08:22:09;;;;;;;1.43;1.33;;;17.90;99.90;;;;;;5058930;28;20510;-79
2021/07/01 08:24:39;;;;;;;1.90;1.80;;;18.00;99.90;;;;;;5059539;28;20449;-80
2021/07/01 08:27:08;;;;;;;1.60;1.40;;;18.00;99.90;;;;;;5060926;28;20465;-79
2021/07/01 08:29:37;;;;;;;1.60;1.50;;;18.00;99.90;;;;;;5067802;28;20450;-80
2021/07/01 08:32:07;;;;;;;1.20;1.10;;;18.00;99.90;;;;;;5055400;28;20461;-80
2021/07/01 08:34:37;;;;;;;1.30;1.20;;;18.00;99.90;;;;;;5069994;28;20515;-81
2021/07/01 08:37:05;;;;;;;1.97;1.50;;;18.00;99.90;;;;;;5056058;28;20861;-80
2021/07/01 08:39:34;;;;;;;1.40;1.30;;;18.00;99.90;;;;;;5059423;28;20465;-79
2021/07/01 08:42:05;;;;;;;1.80;1.37;;;18.00;99.90;;;;;;5056648;28;20472;-75
2021/07/01 08:44:42;;;;;;;2.03;1.53;;;18.00;99.90;;;;;;5072534;28;20529;-80
2021/07/01 08:47:15;;;;;;;1.50;1.40;;;18.00;99.90;;;;;;5063480;28;20536;-74
2021/07/01 08:49:55;;;;;;;1.60;1.50;;;17.90;99.90;;;;;;5063425;28;20464;-79
2021/07/01 08:52:25;;;;;;;1.60;1.50;;;17.90;1.00;;;;;;5066299;28;20451;-78
2021/07/01 08:54:58;;;;;;;1.90;1.53;;;17.80;1.00;;;;;;5061844;28;20453;-79
2021/07/01 08:57:35;;;;;;;1.57;1.47;;;17.80;1.00;;;;;;5060342;28;20891;-79
2021/07/01 09:00:10;;;;;;;1.57;1.47;;;17.80;99.90;;;;;;5058389;28;21002;-79
2021/07/01 09:02:40;;;;;;;2.10;1.60;;;17.70;1.00;;;;;;5066155;28;20456;-79
2021/07/01 09:05:12;;;;;;;2.23;1.87;;;17.80;1.00;;;;;;5058419;28;20590;-81
2021/07/01 09:07:41;;;;;;;4.20;2.00;;;17.90;1.00;;;;;;5060635;28;20496;-78
2021/07/01 09:10:11;;;;;;;2.80;1.40;;;17.90;99.90;;;;;;5086610;28;20480;-77
2021/07/01 09:12:48;;;;;;;2.70;1.40;;;18.00;1.00;;;;;;5074928;28;20948;-79
2021/07/01 09:15:16;;;;;;;1.63;1.43;;;18.00;99.90;;;;;;5067523;28;20507;-78
2021/07/01 09:17:52;;;;;;;1.80;1.60;;;18.00;1.00;;;;;;5068880;28;20526;-81
2021/07/01 09:20:22;;;;;;;3.40;2.33;;;18.00;99.90;;;;;;5061856;28;20461;-79
2021/07/01 09:22:53;;;;;;;1.97;1.40;;;18.00;99.90;;;;;;5063621;28;20460;-79
2021/07/01 09:25:23;;;;;;;1.57;1.47;;;17.90;99.90;;;;;;5065781;28;20471;-79
2021/07/01 09:27:54;;;;;;;1.60;1.50;;;17.70;1.00;;;;;;5062643;28;20461;-79
2021/07/01 09:30:26;;;;;;;1.63;1.53;;;17.80;40.60;;;;;;5064710;28;20475;-80
2021/07/01 09:32:56;;;;;;;1.60;1.50;;;17.80;23.90;;;;;;5064316;28;20545;-79
2021/07/01 09:35:26;;;;;;;2.07;1.67;;;17.90;14.40;;;;;;5068043;28;20448;-79
2021/07/01 09:37:54;;;;;;;2.33;1.40;;;17.90;99.90;;;;;;5067560;28;20506;-77
2021/07/01 09:40:24;;;;;;;2.07;1.97;;;17.90;99.90;;;;;;5071176;28;20440;-79
2021/07/01 09:42:57;;;;;;;2.17;1.60;;;18.00;1.00;;;;;;5063278;28;20478;-80
2021/07/01 09:45:26;;;;;;;1.40;1.30;;;18.10;1.00;;;;;;5074294;28;20460;-80
2021/07/01 09:47:56;;;;;;;1.57;1.47;;;18.10;99.90;;;;;;5060872;28;21226;-80
2021/07/01 09:50:26;;;;;;;1.50;1.40;;;18.10;99.90;;;;;;5063136;28;20448;-80
2021/07/01 09:52:58;;;;;;;2.00;1.83;;;18.10;1.00;;;;;;5061901;28;20446;-81
2021/07/01 09:55:30;;;;;;;2.57;1.80;;;18.10;99.90;;;;;;5061066;28;20453;-78
2021/07/01 09:58:04;;;;;;;2.73;2.53;;;18.10;99.90;;;;;;5066158;28;20518;-78
2021/07/01 10:00:32;;;;;;;1.67;1.57;;;18.10;1.00;;;;;;5059739;28;20802;-79
2021/07/01 10:03:05;;;;;;;2.47;1.70;;;18.10;99.90;;;;;;5058771;28;20452;-78
2021/07/01 10:05:35;;;;;;;2.60;2.40;;;18.10;99.90;;;;;;5055778;28;20505;-79
2021/07/01 10:08:04;;;;;;;1.47;1.30;;;17.90;99.90;;;;;;5069731;28;20949;-78
2021/07/01 10:10:44;;;;;;;1.20;1.10;;;18.00;99.90;;;;;;5059997;28;20453;-79
2021/07/01 10:13:20;;;;;;;1.53;1.10;;;18.10;99.90;;;;;;5056967;28;20460;-79
2021/07/01 10:15:51;;;;;;;1.10;1.10;;;18.00;99.90;;;;;;5057298;28;20445;-79
2021/07/01 10:18:22;;;;;;;1.73;1.30;;;18.10;59.80;;;;;;5061895;28;20503;-78
2021/07/01 10:20:57;;;;;;;1.33;1.23;;;18.00;99.90;;;;;;5074202;28;21058;-79
2021/07/01 10:23:27;;;;;;;1.53;1.23;;;18.10;99.90;;;;;;5066606;28;20536;-80
2021/07/01 10:25:57;;;;;;;1.30;1.20;;;18.20;57.70;;;;;;5055497;28;20500;-77
2021/07/01 10:28:30;;;;;;;1.10;1.00;;;18.10;99.90;;;;;;5061328;28;20453;-77
2021/07/01 10:31:00;;;;;;;1.90;1.37;;;18.20;99.90;;;;;;5070080;28;20543;-77
2021/07/01 10:33:30;;;;;;;1.13;1.03;;;18.30;99.90;;;;;;5070333;28;20975;-80
2021/07/01 10:36:01;;;;;;;1.53;1.00;;;18.40;99.90;;;;;;5095188;28;20474;-78
2021/07/01 10:38:41;;;;;;;1.00;0.90;;;18.40;11.10;;;;;;5074917;28;20565;-81
2021/07/01 10:41:09;;;;;;;1.83;1.00;;;18.50;43.90;;;;;;5068568;28;20461;-79
2021/07/01 10:43:44;;;;;;;1.00;0.90;;;18.40;14.70;;;;;;5072215;28;20541;-79
2021/07/01 10:46:13;;;;;;;0.80;0.80;;;18.40;1.00;;;;;;5069574;28;20533;-79
2021/07/01 10:48:42;;;;;;;1.17;1.00;;;18.40;1.00;;;;;;5071679;28;20448;-80
2021/07/01 10:51:11;;;;;;;1.23;0.90;;;18.40;1.00;;;;;;5061337;28;20452;-79
2021/07/01 10:53:41;;;;;;;1.37;0.77;;;18.50;1.00;;;;;;5060138;28;20487;-81
2021/07/01 10:56:25;;;;;;;0.80;0.70;;;18.40;1.00;;;;;;5054565;28;20487;-79
2021/07/01 10:58:59;;;;;;;1.43;0.77;;;18.30;1.00;;;;;;5063572;28;20485;-79
2021/07/01 11:01:30;;;;;;;1.10;1.00;;;18.30;1.00;;;;;;5070487;28;20507;-79
2021/07/01 11:04:09;;;;;;;0.83;0.83;;;18.20;1.00;;;;;;5090457;28;20440;-81
2021/07/01 11:06:38;;;;;;;1.00;0.77;;;18.20;1.00;;;;;;5079112;28;20473;-78
2021/07/01 11:09:09;;;;;;;1.47;0.83;;;18.20;1.00;;;;;;5087423;28;20447;-79
2021/07/01 11:11:39;;;;;;;1.10;1.00;;;18.20;1.00;;;;;;5082491;28;20545;-78
2021/07/01 11:14:11;;;;;;;0.90;0.90;;;18.10;1.00;;;;;;5085590;28;20452;-77
2021/07/01 11:16:41;;;;;;;0.90;0.90;;;18.10;81.70;;;;;;5070319;28;20473;-79
2021/07/01 11:19:12;;;;;;;2.07;0.80;;;18.10;99.90;;;;;;5066011;28;20622;-80
2021/07/01 11:21:46;;;;;;;1.03;0.83;;;18.10;99.90;;;;;;5062966;28;20447;-78
2021/07/01 11:24:16;;;;;;;1.20;1.10;;;18.20;1.00;;;;;;5068671;28;20472;-79
2021/07/01 11:26:46;;;;;;;0.97;0.93;;;18.20;1.00;;;;;;5077202;28;20492;-77
2021/07/01 11:29:16;;;;;;;1.10;1.00;;;18.20;1.00;;;;;;5061629;28;20454;-79
2021/07/01 11:31:46;;;;;;;1.23;1.13;;;18.10;1.00;;;;;;5067023;28;20450;-74
2021/07/01 11:34:16;;;;;;;1.40;1.00;;;18.20;1.00;;;;;;5065333;28;20456;-80
2021/07/01 11:36:50;;;;;;;2.10;1.00;;;18.10;99.90;;;;;;5082348;28;20465;-79
2021/07/01 11:39:27;;;;;;;0.93;0.90;;;18.10;99.90;;;;;;5069170;28;20812;-79
2021/07/01 11:41:56;;;;;;;0.80;0.80;;;18.00;1.00;;;;;;5072496;28;20441;-80
2021/07/01 11:44:28;;;;;;;1.50;0.80;;;18.00;1.00;;;;;;5068334;28;20457;-79
2021/07/01 11:46:57;;;;;;;0.93;0.93;;;17.90;69.10;;;;;;5062773;28;20487;-77
2021/07/01 11:49:26;;;;;;;1.23;1.13;;;18.00;99.90;;;;;;5072725;28;20459;-79
2021/07/01 11:51:56;;;;;;;1.00;0.90;;;18.00;99.90;;;;;;5055478;28;20541;-77
2021/07/01 11:54:25;;;;;;;1.27;0.97;;;18.10;99.90;;;;;;5062175;28;20834;-78
2021/07/01 11:56:55;;;;;;;1.20;1.10;;;18.10;1.00;;;;;;5068863;28;20919;-78
2021/07/01 11:59:27;;;;;;;1.40;1.30;;;18.20;99.90;;;;;;5060339;28;20484;-78
2021/07/01 12:01:56;;;;;;;1.20;1.10;;;18.20;99.90;;;;;;5086777;28;20983;-77
2021/07/01 12:04:30;;;;;;;1.30;1.07;;;18.20;1.00;;;;;;5090464;28;20493;-77
2021/07/01 12:07:12;;;;;;;1.20;1.10;;;18.20;1.00;;;;;;5057620;28;20508;-78
2021/07/01 12:09:41;;;;;;;1.50;1.40;;;18.30;1.00;;;;;;5065535;28;20806;-78
2021/07/01 12:12:15;;;;;;;1.30;1.17;;;18.30;1.00;;;;;;5076582;28;20908;-78
2021/07/01 12:14:47;;;;;;;1.70;1.30;;;18.30;1.00;;;;;;5065051;28;20450;-77
2021/07/01 12:17:53;;;;;;;1.40;1.30;;;18.30;1.00;;;;;;5078064;28;20475;-79
2021/07/01 12:20:33;;;;;;;2.57;2.13;;;18.30;1.00;;;;;;5075965;28;20446;-80
2021/07/01 12:23:03;;;;;;;3.10;2.40;;;18.30;1.00;;;;;;5079809;28;20537;-78
2021/07/01 12:25:49;;;;;;;1.60;1.30;;;18.30;99.90;;;;;;5059539;28;20820;-80
2021/07/01 12:28:21;;;;;;;1.40;1.30;;;18.40;1.00;;;;;;5078590;28;20550;-80
2021/07/01 12:30:58;;;;;;;1.50;1.40;;;18.40;1.00;;;;;;5075265;28;20522;-79
2021/07/01 12:33:39;;;;;;;1.40;1.30;;;18.50;99.90;;;;;;5085810;28;20830;-81
2021/07/01 12:36:11;;;;;;;1.37;1.27;;;18.60;1.00;;;;;;5059399;28;20481;-81
2021/07/01 12:38:40;;;;;;;3.83;1.30;;;18.80;1.00;;;;;;5068704;28;20847;-80
2021/07/01 12:41:11;;;;;;;1.50;1.40;;;18.90;99.90;;;;;;5064011;28;20466;-80
2021/07/01 12:43:59;;;;;;;1.50;1.40;;;18.80;60.90;;;;;;5074926;28;20983;-79
2021/07/01 12:46:58;;;;;;;6.03;1.50;;;18.80;99.90;;;;;;5065398;28;22988;-82
2021/07/01 12:50:01;;;;;;;2.43;1.60;;;18.90;92.80;;;;;;5069921;28;20860;-77
2021/07/01 12:52:40;;;;;;;1.20;1.10;;;18.90;29.90;;;;;;5063194;28;20952;-80
2021/07/01 12:55:17;;;;;;;2.00;1.30;;;19.00;47.40;;;;;;5069315;28;20457;-77
2021/07/01 12:57:46;;;;;;;2.33;2.07;;;19.00;1.00;;;;;;5051617;28;20488;-79
2021/07/01 13:00:15;;;;;;;2.60;1.70;;;19.10;61.30;;;;;;5078943;28;20811;-81
2021/07/01 13:02:59;;;;;;;2.90;1.80;;;19.10;1.00;;;;;;5071533;28;20453;-79
2021/07/01 13:05:32;;;;;;;2.60;1.73;;;19.10;1.00;;;;;;5063417;28;20463;-75
2021/07/01 13:08:01;;;;;;;9.00;3.60;;;19.10;1.00;;;;;;5060797;28;20446;-77